createdAt,value
2023-05-14T00:01:55.614Z,64.36
2023-05-14T00:04:25.286Z,63.96
2023-05-14T00:06:53.399Z,63.45
2023-05-14T00:09:21.681Z,64.38
2023-05-14T00:11:49.678Z,64.03
2023-05-14T00:14:17.919Z,62.63
2023-05-14T00:16:45.934Z,63.63
2023-05-14T00:19:14.386Z,63.94
2023-05-14T00:21:43.896Z,63.40
2023-05-14T00:24:12.161Z,63.95
2023-05-14T00:26:40.176Z,64.72
2023-05-14T00:29:08.597Z,65.57
2023-05-14T00:31:37.023Z,66.34
2023-05-14T00:34:05.840Z,66.52
2023-05-14T00:36:33.889Z,66.80
2023-05-14T00:39:03.744Z,65.17
2023-05-14T00:41:31.814Z,65.85
2023-05-14T00:44:00.170Z,65.64
2023-05-14T00:46:28.498Z,65.78
2023-05-14T00:48:57.032Z,65.02
2023-05-14T00:51:25.835Z,66.08
2023-05-14T00:53:54.278Z,65.68
2023-05-14T00:56:23.841Z,66.45
2023-05-14T00:58:52.244Z,66.76
2023-05-14T01:01:20.310Z,66.54
2023-05-14T01:03:49.999Z,66.81
2023-05-14T01:06:24.958Z,66.89
2023-05-14T01:09:00.577Z,67.86
2023-05-14T01:11:32.290Z,66.87
2023-05-14T01:14:04.776Z,67.25
2023-05-14T01:16:34.942Z,67.88
2023-05-14T01:19:03.804Z,67.97
2023-05-14T01:21:40.750Z,66.90
2023-05-14T01:24:09.461Z,66.19
2023-05-14T01:26:37.734Z,67.35
2023-05-14T01:29:12.764Z,67.04
2023-05-14T01:31:41.861Z,67.05
2023-05-14T01:34:10.452Z,66.57
2023-05-14T01:36:40.109Z,66.09
2023-05-14T01:39:09.951Z,66.19
2023-05-14T01:41:42.997Z,65.49
2023-05-14T01:44:11.632Z,66.25
2023-05-14T01:46:39.800Z,66.53
2023-05-14T01:49:08.230Z,66.62
2023-05-14T01:51:36.421Z,67.27
2023-05-14T01:54:06.236Z,67.01
2023-05-14T01:56:34.281Z,67.45
2023-05-14T01:59:02.821Z,67.98
2023-05-14T02:01:31.690Z,68.20
2023-05-14T02:04:01.020Z,67.53
2023-05-14T02:06:29.138Z,66.49
2023-05-14T02:08:57.627Z,67.33
2023-05-14T02:11:27.199Z,67.15
2023-05-14T02:13:55.493Z,66.71
2023-05-14T02:16:23.604Z,66.01
2023-05-14T02:18:53.262Z,66.15
2023-05-14T02:21:21.297Z,66.14
2023-05-14T02:23:50.142Z,66.54
2023-05-14T02:26:18.204Z,66.31
2023-05-14T02:28:47.856Z,66.85
2023-05-14T02:31:17.586Z,66.77
2023-05-14T02:33:46.055Z,67.00
2023-05-14T02:36:14.229Z,67.46
2023-05-14T02:38:42.503Z,67.00
2023-05-14T02:41:10.483Z,68.86
2023-05-14T02:43:39.401Z,69.28
2023-05-14T02:46:08.880Z,70.10
2023-05-14T02:48:37.136Z,71.17
2023-05-14T02:51:05.214Z,71.67
2023-05-14T02:53:33.507Z,72.38
2023-05-14T02:56:01.508Z,71.27
2023-05-14T02:58:29.835Z,71.39
2023-05-14T03:00:57.886Z,71.64
2023-05-14T03:03:28.106Z,71.67
2023-05-14T03:05:56.664Z,72.28
2023-05-14T03:08:24.988Z,71.59
2023-05-14T03:10:53.018Z,71.47
2023-05-14T03:13:21.270Z,72.39
2023-05-14T03:15:49.386Z,73.42
2023-05-14T03:18:17.658Z,74.73
2023-05-14T03:20:48.751Z,75.50
2023-05-14T03:23:17.046Z,76.41
2023-05-14T03:25:45.054Z,76.37
2023-05-14T03:28:13.264Z,75.89
2023-05-14T03:30:41.448Z,75.72
2023-05-14T03:33:09.945Z,76.07
2023-05-14T03:35:38.107Z,76.53
2023-05-14T03:38:07.729Z,76.93
2023-05-14T03:40:36.072Z,77.44
2023-05-14T03:43:04.434Z,78.02
2023-05-14T03:45:32.924Z,78.32
2023-05-14T03:48:01.139Z,79.02
2023-05-14T03:50:29.914Z,80.54
2023-05-14T03:52:58.253Z,80.48
2023-05-14T03:55:27.643Z,80.69
2023-05-14T03:57:55.906Z,80.83
2023-05-14T04:00:24.692Z,80.98
2023-05-14T04:02:55.530Z,81.50
2023-05-14T04:05:25.184Z,81.07
2023-05-14T04:07:53.488Z,80.57
2023-05-14T04:10:22.151Z,80.96
2023-05-14T04:12:52.082Z,80.57
2023-05-14T04:15:20.283Z,80.92
2023-05-14T04:17:48.670Z,80.49
2023-05-14T04:20:16.847Z,80.62
2023-05-14T04:22:45.582Z,80.37
2023-05-14T04:25:13.576Z,81.06
2023-05-14T04:27:41.902Z,80.97
2023-05-14T04:30:12.471Z,80.93
2023-05-14T04:32:40.769Z,80.19
2023-05-14T04:35:10.172Z,80.29
2023-05-14T04:37:38.513Z,80.05
2023-05-14T04:40:08.895Z,79.26
2023-05-14T04:42:37.128Z,79.17
2023-05-14T04:45:06.174Z,77.86
2023-05-14T04:47:35.944Z,77.43
2023-05-14T04:50:04.209Z,77.81
2023-05-14T04:52:32.423Z,77.94
2023-05-14T04:55:00.476Z,78.93
2023-05-14T04:57:28.847Z,79.07
2023-05-14T04:59:56.872Z,78.71
2023-05-14T05:02:25.136Z,77.06
2023-05-14T05:04:54.550Z,76.95
2023-05-14T05:07:22.784Z,77.60
2023-05-14T05:09:51.025Z,78.03
2023-05-14T05:12:19.308Z,76.27
2023-05-14T05:14:47.268Z,76.19
2023-05-14T05:17:15.709Z,76.00
2023-05-14T05:19:44.630Z,76.27
2023-05-14T05:22:14.364Z,75.68
2023-05-14T05:24:42.404Z,75.79
2023-05-14T05:27:10.667Z,75.68
2023-05-14T05:29:38.728Z,75.52
2023-05-14T05:32:08.218Z,75.42
2023-05-14T05:34:36.731Z,75.70
2023-05-14T05:37:06.050Z,75.09
2023-05-14T05:39:35.627Z,74.17
2023-05-14T05:42:04.293Z,73.99
2023-05-14T05:44:32.257Z,74.69
2023-05-14T05:47:00.628Z,73.97
2023-05-14T05:49:28.798Z,74.14
2023-05-14T05:51:57.508Z,73.77
2023-05-14T05:54:25.757Z,73.11
2023-05-14T05:56:55.512Z,73.49
2023-05-14T05:59:23.456Z,74.16
2023-05-14T06:01:51.759Z,74.06
2023-05-14T06:04:20.168Z,74.21
2023-05-14T06:06:48.373Z,74.60
2023-05-14T06:09:16.504Z,75.62
2023-05-14T06:11:44.739Z,75.63
2023-05-14T06:14:14.120Z,75.40
2023-05-14T06:16:42.506Z,74.00
2023-05-14T06:19:11.133Z,73.30
2023-05-14T06:21:39.578Z,72.78
2023-05-14T06:24:08.096Z,74.52
2023-05-14T06:26:36.422Z,74.74
2023-05-14T06:29:04.398Z,75.38
2023-05-14T06:31:34.040Z,74.02
2023-05-14T06:34:02.050Z,74.57
2023-05-14T06:36:30.318Z,73.47
2023-05-14T06:38:58.458Z,72.04
2023-05-14T06:41:26.844Z,69.57
2023-05-14T06:43:55.207Z,68.44
2023-05-14T06:46:23.537Z,67.17
2023-05-14T06:48:52.994Z,66.95
2023-05-14T06:51:21.345Z,66.91
2023-05-14T06:53:49.391Z,67.46
2023-05-14T06:56:17.664Z,66.95
2023-05-14T06:58:45.629Z,66.13
2023-05-14T07:01:14.135Z,66.56
2023-05-14T07:03:42.166Z,66.45
2023-05-14T07:06:13.561Z,66.43
2023-05-14T07:08:42.183Z,66.98
2023-05-14T07:11:10.404Z,67.46
2023-05-14T07:13:38.443Z,67.97
2023-05-14T07:16:08.802Z,69.39
2023-05-14T07:18:36.804Z,69.57
2023-05-14T07:21:06.494Z,69.05
2023-05-14T07:23:36.459Z,68.46
2023-05-14T07:26:05.604Z,68.62
2023-05-14T07:28:33.886Z,69.58
2023-05-14T07:31:02.192Z,69.18
2023-05-14T07:33:30.250Z,69.90
2023-05-14T07:35:58.545Z,70.93
2023-05-14T07:38:26.683Z,70.60
2023-05-14T07:40:56.419Z,70.00
2023-05-14T07:43:24.427Z,69.60
2023-05-14T07:45:52.899Z,69.51
2023-05-14T07:48:21.014Z,68.74
2023-05-14T07:50:49.788Z,69.85
2023-05-14T07:53:17.909Z,68.04
2023-05-14T07:55:48.046Z,68.67
2023-05-14T07:58:17.447Z,66.62
2023-05-14T08:00:45.783Z,65.26
2023-05-14T08:03:13.997Z,64.67
2023-05-14T08:05:42.249Z,64.58
2023-05-14T08:08:10.281Z,63.87
2023-05-14T08:10:39.003Z,62.38
2023-05-14T08:13:07.385Z,63.52
2023-05-14T08:15:37.024Z,61.06
2023-05-14T08:18:05.209Z,62.01
2023-05-14T08:20:33.526Z,60.42
2023-05-14T08:23:01.602Z,60.51
2023-05-14T08:25:29.976Z,60.02
2023-05-14T08:27:59.644Z,60.34
2023-05-14T08:30:28.338Z,60.97
2023-05-14T08:32:59.031Z,60.34
2023-05-14T08:35:27.357Z,59.36
2023-05-14T08:37:56.821Z,60.57
2023-05-14T08:40:25.400Z,59.10
2023-05-14T08:42:54.038Z,58.78
2023-05-14T08:45:25.924Z,58.74
2023-05-14T08:47:54.282Z,58.40
2023-05-14T08:50:24.298Z,59.20
2023-05-14T08:52:52.710Z,59.25
2023-05-14T08:55:21.120Z,58.89
2023-05-14T08:57:49.614Z,59.72
2023-05-14T09:00:18.601Z,60.09
2023-05-14T09:02:47.615Z,61.07
2023-05-14T09:05:16.312Z,60.03
2023-05-14T09:07:45.854Z,60.63
2023-05-14T09:10:15.340Z,58.82
2023-05-14T09:12:43.390Z,58.77
2023-05-14T09:15:12.000Z,57.63
2023-05-14T09:17:40.031Z,58.67
2023-05-14T09:20:10.470Z,58.76
2023-05-14T09:22:39.887Z,57.30
2023-05-14T09:25:12.133Z,56.26
2023-05-14T09:27:40.225Z,56.22
2023-05-14T09:30:10.237Z,56.82
2023-05-14T09:32:39.738Z,57.79
2023-05-14T09:35:17.454Z,57.97
2023-05-14T09:37:47.301Z,56.35
2023-05-14T09:40:19.042Z,55.63
2023-05-14T09:42:48.102Z,55.15
2023-05-14T09:45:16.582Z,54.02
2023-05-14T09:47:45.098Z,53.25
2023-05-14T09:50:13.815Z,53.02
2023-05-14T09:52:41.834Z,53.11
2023-05-14T09:55:10.577Z,53.33
2023-05-14T09:57:40.636Z,53.27
2023-05-14T10:00:10.321Z,51.71
2023-05-14T10:02:40.892Z,51.84
2023-05-14T10:05:10.161Z,52.98
2023-05-14T10:07:42.574Z,53.36
2023-05-14T10:10:15.025Z,53.01
2023-05-14T10:12:46.783Z,52.92
2023-05-14T10:15:18.726Z,52.40
2023-05-14T10:17:50.653Z,52.62
2023-05-14T10:20:19.019Z,51.73
2023-05-14T10:22:47.343Z,51.43
2023-05-14T10:25:15.781Z,52.45
2023-05-14T10:27:45.282Z,51.56
2023-05-14T10:30:14.129Z,51.62
2023-05-14T10:32:44.012Z,49.83
2023-05-14T10:35:20.357Z,51.25
2023-05-14T10:37:48.690Z,51.65
2023-05-14T10:40:18.464Z,50.99
2023-05-14T10:42:48.115Z,50.62
2023-05-14T10:45:17.528Z,50.90
2023-05-14T10:47:47.479Z,49.58
2023-05-14T10:50:17.384Z,50.35
2023-05-14T10:52:46.171Z,52.50
2023-05-14T10:55:15.646Z,52.14
2023-05-14T10:57:48.179Z,49.39
2023-05-14T11:00:17.406Z,49.85
2023-05-14T11:02:46.729Z,49.59
2023-05-14T11:05:17.521Z,48.87
2023-05-14T11:07:46.822Z,48.85
2023-05-14T11:10:16.445Z,47.69
2023-05-14T11:12:45.612Z,47.35
2023-05-14T11:15:16.816Z,48.07
2023-05-14T11:17:46.129Z,47.31
2023-05-14T11:20:14.780Z,46.84
2023-05-14T11:22:43.615Z,47.71
2023-05-14T11:25:14.289Z,47.80
2023-05-14T11:27:44.042Z,48.36
2023-05-14T11:30:18.262Z,46.08
2023-05-14T11:32:48.340Z,46.08
2023-05-14T11:35:17.018Z,46.85
2023-05-14T11:37:51.035Z,46.32
2023-05-14T11:40:19.962Z,46.63
2023-05-14T11:42:47.998Z,46.45
2023-05-14T11:45:26.060Z,46.76
2023-05-14T11:47:54.736Z,46.91
2023-05-14T11:50:23.508Z,47.20
2023-05-14T11:52:51.891Z,47.73
2023-05-14T11:55:20.888Z,47.00
2023-05-14T11:57:49.099Z,46.98
2023-05-14T12:00:22.111Z,47.67
2023-05-14T12:02:50.748Z,47.94
2023-05-14T12:05:19.969Z,47.00
2023-05-14T12:07:48.296Z,47.14
2023-05-14T12:10:16.570Z,45.61
2023-05-14T12:12:46.453Z,46.59
2023-05-14T12:15:16.296Z,46.94
2023-05-14T12:17:50.730Z,46.06
2023-05-14T12:20:19.090Z,45.05
2023-05-14T12:22:47.153Z,45.34
2023-05-14T12:25:15.554Z,45.89
2023-05-14T12:27:45.858Z,46.59
2023-05-14T12:32:48.823Z,46.20
2023-05-14T12:35:17.483Z,45.17
2023-05-14T12:37:45.461Z,45.39
2023-05-14T12:40:13.949Z,44.10
2023-05-14T12:42:42.072Z,44.98
2023-05-14T12:45:11.079Z,44.63
2023-05-14T12:47:39.140Z,44.42
2023-05-14T12:50:09.860Z,44.96
2023-05-14T12:52:39.715Z,44.26
2023-05-14T12:55:09.944Z,43.19
2023-05-14T12:57:38.849Z,43.63
2023-05-14T13:00:12.959Z,44.17
2023-05-14T13:02:43.660Z,44.26
2023-05-14T13:05:13.901Z,43.72
2023-05-14T13:07:42.215Z,43.27
2023-05-14T13:10:11.336Z,43.01
2023-05-14T13:12:39.636Z,42.24
2023-05-14T13:15:09.051Z,42.70
2023-05-14T13:17:37.285Z,42.32
2023-05-14T13:20:06.654Z,42.83
2023-05-14T13:22:36.070Z,43.63
2023-05-14T13:25:04.892Z,43.27
2023-05-14T13:27:33.627Z,43.55
2023-05-14T13:30:01.844Z,43.18
2023-05-14T13:32:29.989Z,42.76
2023-05-14T13:34:58.289Z,43.42
2023-05-14T13:37:26.791Z,42.98
2023-05-14T13:39:56.471Z,43.00
2023-05-14T13:42:24.573Z,43.57
2023-05-14T13:44:52.799Z,43.80
2023-05-14T13:47:20.860Z,44.52
2023-05-14T13:49:49.096Z,45.28
2023-05-14T13:52:17.145Z,45.40
2023-05-14T13:54:45.487Z,45.60
2023-05-14T13:57:14.918Z,44.74
2023-05-14T13:59:43.216Z,44.13
2023-05-14T14:02:11.257Z,41.26
2023-05-14T14:04:39.498Z,41.38
2023-05-14T14:07:08.216Z,39.60
2023-05-14T14:09:36.889Z,39.46
2023-05-14T14:12:05.537Z,38.09
2023-05-14T14:14:35.169Z,38.68
2023-05-14T14:17:03.166Z,38.06
2023-05-14T14:19:31.389Z,37.16
2023-05-14T14:21:59.406Z,35.87
2023-05-14T14:24:27.724Z,36.66
2023-05-14T14:26:55.875Z,37.12
2023-05-14T14:29:24.145Z,38.21
2023-05-14T14:31:53.619Z,38.38
2023-05-14T14:34:21.864Z,36.52
2023-05-14T14:36:49.947Z,36.50
2023-05-14T14:39:18.216Z,35.43
2023-05-14T14:41:47.506Z,36.30
2023-05-14T14:44:15.779Z,34.57
2023-05-14T14:46:43.827Z,34.27
2023-05-14T14:49:13.424Z,29.97
2023-05-14T14:51:41.712Z,30.52
2023-05-14T14:54:09.942Z,30.91
2023-05-14T14:56:38.129Z,29.90
2023-05-14T14:59:06.413Z,27.87
2023-05-14T15:01:34.534Z,27.78
2023-05-14T15:04:02.993Z,28.06
2023-05-14T15:06:32.274Z,25.72
2023-05-14T15:09:00.648Z,27.20
2023-05-14T15:11:28.824Z,25.29
2023-05-14T15:13:57.190Z,24.74
2023-05-14T15:16:25.311Z,25.12
2023-05-14T15:18:53.731Z,23.22
2023-05-14T15:21:22.166Z,23.75
2023-05-14T15:23:51.732Z,23.89
2023-05-14T15:26:19.813Z,24.51
2023-05-14T15:28:48.045Z,24.16
2023-05-14T15:31:16.327Z,23.78
2023-05-14T15:33:44.631Z,23.42
2023-05-14T15:36:12.892Z,24.25
2023-05-14T15:38:42.145Z,25.67
2023-05-14T15:41:11.505Z,24.90
2023-05-14T15:43:39.830Z,24.54
2023-05-14T15:46:07.884Z,24.69
2023-05-14T15:48:36.785Z,24.60
2023-05-14T15:51:04.908Z,24.16
2023-05-14T15:53:33.217Z,24.38
2023-05-14T15:56:01.275Z,24.21
2023-05-14T15:58:31.047Z,24.78
2023-05-14T16:00:59.097Z,25.18
2023-05-14T16:03:27.415Z,25.86
2023-05-14T16:05:56.026Z,25.82
2023-05-14T16:08:24.406Z,25.19
2023-05-14T16:10:52.433Z,25.83
2023-05-14T16:13:20.690Z,26.14
2023-05-14T16:15:51.063Z,27.43
2023-05-14T16:18:19.540Z,27.16
2023-05-14T16:20:47.649Z,27.76
2023-05-14T16:23:15.920Z,27.51
2023-05-14T16:25:43.960Z,27.57
2023-05-14T16:28:12.324Z,26.19
2023-05-14T16:30:40.410Z,26.50
2023-05-14T16:33:10.013Z,27.38
2023-05-14T16:35:39.272Z,27.02
2023-05-14T16:38:07.499Z,27.25
2023-05-14T16:40:35.735Z,27.38
2023-05-14T16:43:04.157Z,27.27
2023-05-14T16:45:34.708Z,27.25
2023-05-14T16:48:03.037Z,26.37
2023-05-14T16:50:32.562Z,27.33
2023-05-14T16:53:00.827Z,26.42
2023-05-14T16:55:28.873Z,26.70
2023-05-14T16:57:57.234Z,26.86
2023-05-14T17:00:25.427Z,26.87
2023-05-14T17:02:54.114Z,27.74
2023-05-14T17:05:22.325Z,27.86
2023-05-14T17:07:52.012Z,27.33
2023-05-14T17:10:20.039Z,27.35
2023-05-14T17:12:48.372Z,26.98
2023-05-14T17:15:16.422Z,27.14
2023-05-14T17:17:44.883Z,28.01
2023-05-14T17:20:15.312Z,28.03
2023-05-14T17:22:44.944Z,28.28
2023-05-14T17:25:14.544Z,27.61
2023-05-14T17:27:42.564Z,27.83
2023-05-14T17:30:11.446Z,28.27
2023-05-14T17:32:39.602Z,28.77
2023-05-14T17:35:09.606Z,28.89
2023-05-14T17:37:37.651Z,28.98
2023-05-14T17:40:07.043Z,29.13
2023-05-14T17:42:36.657Z,28.86
2023-05-14T17:45:05.833Z,29.82
2023-05-14T17:47:34.070Z,30.06
2023-05-14T17:50:02.404Z,30.48
2023-05-14T17:52:30.662Z,31.20
2023-05-14T17:54:58.964Z,31.16
2023-05-14T17:57:27.157Z,32.14
2023-05-14T17:59:56.737Z,32.73
2023-05-14T18:02:24.953Z,33.67
2023-05-14T18:04:53.299Z,34.10
2023-05-14T18:07:22.492Z,34.68
2023-05-14T18:09:50.763Z,35.37
2023-05-14T18:12:18.770Z,35.54
2023-05-14T18:14:47.030Z,36.23
2023-05-14T18:17:17.154Z,36.77
2023-05-14T18:19:45.529Z,37.18
2023-05-14T18:22:13.632Z,37.63
2023-05-14T18:24:44.037Z,38.25
2023-05-14T18:27:12.339Z,38.70
2023-05-14T18:29:40.595Z,39.51
2023-05-14T18:32:09.097Z,40.04
2023-05-14T18:34:38.759Z,40.36
2023-05-14T18:37:07.082Z,40.68
2023-05-14T18:39:35.443Z,41.13
2023-05-14T18:42:03.430Z,41.31
2023-05-14T18:44:31.813Z,41.46
2023-05-14T18:47:00.456Z,41.92
2023-05-14T18:49:28.754Z,42.72
2023-05-14T18:51:58.162Z,42.13
2023-05-14T18:54:26.461Z,42.42
2023-05-14T18:56:54.507Z,42.89
2023-05-14T18:59:22.859Z,42.60
2023-05-14T19:01:51.259Z,42.44
2023-05-14T19:04:19.599Z,42.63
2023-05-14T19:06:47.616Z,43.56
2023-05-14T19:09:20.903Z,44.03
2023-05-14T19:11:49.084Z,44.31
2023-05-14T19:14:17.376Z,44.69
2023-05-14T19:16:45.455Z,44.82
2023-05-14T19:19:13.914Z,43.95
2023-05-14T19:21:41.985Z,44.73
2023-05-14T19:24:10.283Z,46.40
2023-05-14T19:26:39.745Z,48.93
2023-05-14T19:29:08.047Z,49.44
2023-05-14T19:31:36.122Z,53.13
2023-05-14T19:34:04.453Z,55.50
2023-05-14T19:36:32.580Z,55.37
2023-05-14T19:39:00.923Z,54.84
2023-05-14T19:41:29.194Z,55.43
2023-05-14T19:43:58.791Z,54.59
2023-05-14T19:46:27.331Z,55.52
2023-05-14T19:48:55.573Z,56.42
2023-05-14T19:51:23.626Z,58.11
2023-05-14T19:53:51.910Z,58.38
2023-05-14T19:56:20.067Z,57.58
2023-05-14T19:58:48.349Z,56.11
2023-05-14T20:01:17.797Z,55.42
2023-05-14T20:03:46.083Z,59.61
2023-05-14T20:06:14.390Z,61.62
2023-05-14T20:08:42.769Z,60.00
2023-05-14T20:11:10.914Z,59.94
2023-05-14T20:13:39.257Z,59.91
2023-05-14T20:16:07.444Z,59.67
2023-05-14T20:18:37.110Z,60.12
2023-05-14T20:21:05.531Z,60.54
2023-05-14T20:23:33.779Z,60.46
2023-05-14T20:26:02.316Z,61.63
2023-05-14T20:28:30.626Z,62.18
2023-05-14T20:31:00.166Z,61.27
2023-05-14T20:33:29.170Z,61.35
2023-05-14T20:35:58.668Z,60.56
2023-05-14T20:38:29.302Z,61.21
2023-05-14T20:40:57.504Z,61.10
2023-05-14T20:43:27.290Z,60.88
2023-05-14T20:45:57.648Z,60.92
2023-05-14T20:48:26.155Z,61.40
2023-05-14T20:50:54.186Z,61.76
2023-05-14T20:53:25.236Z,60.96
2023-05-14T20:55:53.280Z,61.48
2023-05-14T20:58:21.557Z,61.81
2023-05-14T21:00:49.605Z,61.82
2023-05-14T21:03:18.018Z,61.23
2023-05-14T21:05:46.143Z,60.31
2023-05-14T21:08:14.401Z,60.53
2023-05-14T21:10:43.757Z,60.75
2023-05-14T21:13:11.943Z,60.75
2023-05-14T21:15:39.966Z,59.78
2023-05-14T21:18:08.330Z,59.96
2023-05-14T21:20:36.648Z,59.40
2023-05-14T21:23:04.874Z,59.39
2023-05-14T21:25:32.951Z,60.89
2023-05-14T21:28:02.534Z,60.04
2023-05-14T21:30:30.598Z,59.75
2023-05-14T21:32:58.909Z,60.27
2023-05-14T21:35:27.162Z,61.16
2023-05-14T21:37:55.616Z,63.01
2023-05-14T21:40:23.592Z,62.02
2023-05-14T21:42:51.786Z,62.16
2023-05-14T21:45:23.400Z,62.26
2023-05-14T21:47:52.114Z,61.47
2023-05-14T21:50:20.421Z,60.75
2023-05-14T21:52:48.652Z,61.08
2023-05-14T21:55:16.849Z,61.40
2023-05-14T21:57:45.124Z,61.80
2023-05-14T22:00:18.448Z,61.47
2023-05-14T22:02:48.134Z,61.97
2023-05-14T22:05:16.218Z,62.68
2023-05-14T22:07:44.520Z,62.38
2023-05-14T22:10:13.801Z,62.66
2023-05-14T22:12:42.952Z,63.04
2023-05-14T22:15:11.929Z,62.93
2023-05-14T22:17:40.301Z,63.76
2023-05-14T22:20:11.180Z,64.78
2023-05-14T22:22:39.595Z,66.28
2023-05-14T22:25:08.266Z,66.86
2023-05-14T22:27:36.572Z,66.54
2023-05-14T22:30:05.321Z,67.11
2023-05-14T22:32:33.737Z,68.70
2023-05-14T22:35:01.818Z,68.55
2023-05-14T22:37:31.600Z,68.43
2023-05-14T22:39:59.556Z,68.87
2023-05-14T22:42:28.366Z,68.51
2023-05-14T22:44:56.299Z,68.81
2023-05-14T22:47:24.798Z,68.79
2023-05-14T22:49:52.915Z,69.60
2023-05-14T22:52:21.216Z,69.33
2023-05-14T22:54:51.011Z,69.63
2023-05-14T22:57:19.308Z,70.30
2023-05-14T22:59:47.355Z,70.31
2023-05-14T23:02:15.799Z,70.53
2023-05-14T23:04:44.269Z,69.59
2023-05-14T23:07:12.541Z,69.03
2023-05-14T23:09:40.494Z,69.52
2023-05-14T23:12:10.665Z,69.53
2023-05-14T23:14:38.680Z,70.04
2023-05-14T23:17:06.926Z,70.91
2023-05-14T23:19:34.977Z,70.36
2023-05-14T23:22:03.328Z,69.97
2023-05-14T23:24:31.334Z,69.09
2023-05-14T23:26:59.533Z,68.83
2023-05-14T23:29:28.849Z,68.97
2023-05-14T23:31:57.264Z,68.77
